Time;durP1;ratioP1;P1;durP2;ratioP2;P2;SDS_P1;SDS_P2;PMS_P1;PMS_P2;Temp;Humidity;BMP_temperature;BMP_pressure;BME280_temperature;BME280_humidity;BME280_pressure;Samples;Min_cycle;Max_cycle;Signal;HPM_P1;HPM_P2
2021/12/06 00:01:09;;;;;;;25.77;23.70;;;;;;;;;;5035769;28;20281;-82
2021/12/06 00:03:40;;;;;;;27.83;25.73;;;;;;;;;;5037513;28;20657;-83
2021/12/06 00:06:09;;;;;;;26.33;24.45;;;;;;;;;;5037792;28;20200;-82
2021/12/06 00:08:36;;;;;;;26.38;24.58;;;;;;;;;;5048094;28;20194;-82
2021/12/06 00:11:08;;;;;;;28.77;26.73;;;;;;;;;;5056497;28;20281;-82
2021/12/06 00:13:38;;;;;;;29.08;26.90;;;;;;;;;;5056798;28;20199;-82
2021/12/06 00:16:09;;;;;;;27.85;25.60;;;;;;;;;;5056384;28;20187;-82
2021/12/06 00:18:36;;;;;;;28.00;25.90;;;;;;;;;;5056792;28;20214;-82
2021/12/06 00:21:05;;;;;;;26.67;24.98;;;;;;;;;;5055413;28;20233;-82
2021/12/06 00:23:34;;;;;;;27.50;25.60;;;;;;;;;;5055161;28;20640;-82
2021/12/06 00:26:01;;;;;;;28.73;26.35;;;;;;;;;;5055799;28;20644;-81
2021/12/06 00:28:28;;;;;;;29.23;26.83;;;;;;;;;;5056221;28;20675;-80
2021/12/06 00:30:56;;;;;;;28.00;25.90;;;;;;;;;;5055054;28;20205;-81
2021/12/06 00:33:24;;;;;;;28.85;26.77;;;;;;;;;;5053770;28;20589;-82
2021/12/06 00:35:51;;;;;;;30.48;27.67;;;;;;;;;;5034746;28;20234;-82
2021/12/06 00:38:18;;;;;;;31.70;29.00;;;;;;;;;;5034708;28;20202;-82
2021/12/06 00:40:50;;;;;;;31.38;28.55;;;;;;;;;;5034623;28;20219;-82
2021/12/06 00:43:17;;;;;;;33.15;30.38;;;;;;;;;;5034833;28;20544;-82
2021/12/06 00:45:45;;;;;;;31.73;29.23;;;;;;;;;;5034720;28;20198;-82
2021/12/06 00:48:12;;;;;;;32.50;29.55;;;;;;;;;;5034557;28;20560;-82
2021/12/06 00:50:41;;;;;;;32.78;29.95;;;;;;;;;;5034441;28;20207;-82
2021/12/06 00:53:09;;;;;;;35.20;32.08;;;;;;;;;;5034831;28;20231;-82
2021/12/06 00:55:37;;;;;;;36.35;32.95;;;;;;;;;;5016673;28;20210;-82
2021/12/06 00:58:05;;;;;;;36.15;33.10;;;;;;;;;;5035007;28;20207;-81
2021/12/06 01:00:37;;;;;;;34.85;31.98;;;;;;;;;;5034194;28;20577;-82
2021/12/06 01:03:05;;;;;;;33.83;31.20;;;;;;;;;;5034668;28;20198;-82
2021/12/06 01:05:33;;;;;;;35.08;31.83;;;;;;;;;;5033675;28;20653;-82
2021/12/06 01:08:00;;;;;;;38.15;34.50;;;;;;;;;;5033956;28;20193;-82
2021/12/06 01:10:29;;;;;;;36.00;32.70;;;;;;;;;;5034178;28;20226;-82
2021/12/06 01:12:56;;;;;;;34.75;31.73;;;;;;;;;;5034470;28;20198;-82
2021/12/06 01:15:26;;;;;;;37.65;34.30;;;;;;;;;;5042931;28;20206;-80
2021/12/06 01:17:53;;;;;;;39.20;35.60;;;;;;;;;;5035785;28;20653;-82
2021/12/06 01:20:26;;;;;;;39.70;35.95;;;;;;;;;;5034034;28;20206;-82
2021/12/06 01:22:57;;;;;;;37.15;33.85;;;;;;;;;;5034469;28;20195;-82
2021/12/06 01:25:32;;;;;;;37.90;34.45;;;;;;;;;;5034594;28;20196;-82
2021/12/06 01:30:59;;;;;;;37.63;34.30;;;;;;;;;;5032497;28;20217;-81
2021/12/06 01:34:03;;;;;;;37.22;33.63;;;;;;;;;;5033240;28;20198;-82
2021/12/06 01:39:28;;;;;;;37.35;34.05;;;;;;;;;;4972975;28;20306;-82
2021/12/06 01:41:57;;;;;;;38.95;35.22;;;;;;;;;;4973019;28;20280;-81
2021/12/06 01:44:27;;;;;;;36.70;33.47;;;;;;;;;;4972099;28;20220;-80
2021/12/06 01:46:57;;;;;;;36.70;33.35;;;;;;;;;;4972582;28;20255;-81
2021/12/06 01:49:26;;;;;;;42.47;35.97;;;;;;;;;;4972580;28;20219;-82
2021/12/06 01:51:56;;;;;;;36.30;33.30;;;;;;;;;;4971622;28;20225;-82
2021/12/06 01:54:23;;;;;;;37.88;34.28;;;;;;;;;;4971674;28;20201;-81
2021/12/06 01:56:51;;;;;;;38.03;34.35;;;;;;;;;;4971580;28;20212;-82
2021/12/06 01:59:19;;;;;;;40.28;36.08;;;;;;;;;;4971484;28;20207;-82
2021/12/06 02:01:47;;;;;;;38.28;34.47;;;;;;;;;;4971371;28;20299;-83
2021/12/06 02:04:16;;;;;;;39.20;35.50;;;;;;;;;;4971489;28;20205;-82
2021/12/06 02:06:44;;;;;;;37.08;33.75;;;;;;;;;;4971579;28;20259;-81
2021/12/06 02:09:13;;;;;;;36.47;33.10;;;;;;;;;;4971361;28;20188;-82
2021/12/06 02:11:41;;;;;;;36.58;33.17;;;;;;;;;;5012359;28;20195;-81
2021/12/06 02:14:21;;;;;;;37.30;33.88;;;;;;;;;;5012468;28;20206;-81
2021/12/06 02:17:01;;;;;;;34.67;31.73;;;;;;;;;;5013437;28;20286;-82
2021/12/06 02:19:33;;;;;;;36.33;33.20;;;;;;;;;;5013032;28;20204;-81
2021/12/06 02:22:01;;;;;;;36.72;33.17;;;;;;;;;;5013003;28;20684;-81
2021/12/06 02:24:30;;;;;;;35.85;32.53;;;;;;;;;;5021772;28;20195;-82
2021/12/06 02:26:58;;;;;;;35.38;32.03;;;;;;;;;;5014344;28;20190;-83
2021/12/06 02:29:26;;;;;;;35.50;32.20;;;;;;;;;;5014177;28;20196;-82
2021/12/06 02:31:53;;;;;;;35.75;32.75;;;;;;;;;;5012912;28;20211;-82
2021/12/06 02:34:21;;;;;;;37.28;33.40;;;;;;;;;;5020367;28;20218;-82
2021/12/06 02:36:48;;;;;;;35.75;32.30;;;;;;;;;;5032720;28;20192;-82
2021/12/06 02:39:22;;;;;;;35.70;32.35;;;;;;;;;;5032134;28;20214;-82
2021/12/06 02:41:52;;;;;;;35.13;32.22;;;;;;;;;;5032274;28;20223;-81
2021/12/06 02:44:20;;;;;;;38.45;34.88;;;;;;;;;;5038048;28;20194;-81
2021/12/06 02:46:47;;;;;;;41.03;36.92;;;;;;;;;;5032044;28;20633;-82
2021/12/06 02:49:14;;;;;;;41.72;37.13;;;;;;;;;;5032332;28;20195;-80
2021/12/06 02:51:42;;;;;;;41.45;37.45;;;;;;;;;;5014621;28;20643;-80
2021/12/06 02:54:10;;;;;;;42.97;38.78;;;;;;;;;;5033123;28;20192;-79
2021/12/06 02:56:52;;;;;;;41.92;37.47;;;;;;;;;;5032665;28;20631;-80
2021/12/06 02:59:20;;;;;;;44.08;36.60;;;;;;;;;;5033708;28;20200;-80
2021/12/06 03:01:50;;;;;;;40.22;36.22;;;;;;;;;;5032479;28;20230;-80
2021/12/06 03:04:18;;;;;;;43.08;36.92;;;;;;;;;;5032166;28;20192;-80
2021/12/06 03:06:47;;;;;;;42.17;38.03;;;;;;;;;;5031687;28;20208;-80
2021/12/06 03:09:15;;;;;;;40.80;36.70;;;;;;;;;;5031804;28;20200;-80
2021/12/06 03:11:45;;;;;;;41.50;37.10;;;;;;;;;;5031718;28;20233;-80
2021/12/06 03:14:14;;;;;;;42.45;38.15;;;;;;;;;;5031804;28;20230;-80
2021/12/06 03:16:41;;;;;;;40.53;36.30;;;;;;;;;;5031708;28;20187;-80
2021/12/06 03:19:09;;;;;;;40.80;36.80;;;;;;;;;;5031746;28;20198;-80
2021/12/06 03:21:37;;;;;;;40.90;36.80;;;;;;;;;;5032349;28;20269;-80
2021/12/06 03:24:05;;;;;;;42.95;38.60;;;;;;;;;;5035578;28;20195;-80
2021/12/06 03:26:33;;;;;;;42.58;38.00;;;;;;;;;;5035529;28;20204;-80
2021/12/06 03:29:02;;;;;;;43.55;39.35;;;;;;;;;;5035575;28;20202;-80
2021/12/06 03:31:29;;;;;;;43.58;39.28;;;;;;;;;;5037566;28;20662;-80
2021/12/06 03:33:58;;;;;;;41.63;37.38;;;;;;;;;;5033611;28;20230;-80
2021/12/06 03:36:26;;;;;;;42.58;38.35;;;;;;;;;;5016233;28;20199;-81
2021/12/06 03:38:55;;;;;;;43.90;39.50;;;;;;;;;;5016784;28;20212;-81
2021/12/06 03:41:23;;;;;;;39.90;36.00;;;;;;;;;;5019056;28;20247;-81
2021/12/06 03:43:51;;;;;;;40.90;36.58;;;;;;;;;;5016784;28;20207;-80
2021/12/06 03:46:21;;;;;;;43.58;38.13;;;;;;;;;;5016519;28;20192;-81
2021/12/06 03:48:48;;;;;;;40.58;36.67;;;;;;;;;;5017000;28;20191;-81
2021/12/06 03:51:16;;;;;;;39.95;36.17;;;;;;;;;;5015883;28;20235;-81
2021/12/06 03:53:55;;;;;;;41.10;36.70;;;;;;;;;;5017043;28;20254;-81
2021/12/06 03:56:22;;;;;;;39.70;35.58;;;;;;;;;;5015271;28;20593;-81
2021/12/06 03:58:50;;;;;;;39.38;35.47;;;;;;;;;;5023091;28;20192;-81
2021/12/06 04:01:19;;;;;;;41.60;35.63;;;;;;;;;;5026532;28;20313;-80
2021/12/06 04:03:47;;;;;;;40.20;35.90;;;;;;;;;;5018967;28;20201;-81
2021/12/06 04:06:15;;;;;;;41.40;36.88;;;;;;;;;;5016259;28;20207;-81
2021/12/06 04:08:42;;;;;;;43.72;38.95;;;;;;;;;;5015025;28;20217;-81
2021/12/06 04:11:10;;;;;;;41.45;36.47;;;;;;;;;;5015045;28;20207;-81
2021/12/06 04:13:37;;;;;;;43.70;36.35;;;;;;;;;;5014589;28;20194;-81
2021/12/06 04:16:06;;;;;;;43.92;38.38;;;;;;;;;;5015642;28;20694;-81
2021/12/06 04:18:35;;;;;;;41.70;37.28;;;;;;;;;;5015609;28;20194;-80
2021/12/06 04:21:02;;;;;;;41.33;36.95;;;;;;;;;;5015154;28;20194;-81
2021/12/06 04:23:29;;;;;;;41.30;35.17;;;;;;;;;;5015548;28;20207;-81
2021/12/06 04:25:57;;;;;;;41.10;36.83;;;;;;;;;;5014512;28;20210;-81
2021/12/06 04:28:24;;;;;;;38.30;34.58;;;;;;;;;;5015002;28;20202;-81
2021/12/06 04:30:52;;;;;;;41.20;36.15;;;;;;;;;;5015375;28;20195;-81
2021/12/06 04:33:19;;;;;;;38.97;34.85;;;;;;;;;;5013627;28;20197;-81
2021/12/06 04:35:49;;;;;;;41.05;36.75;;;;;;;;;;5034529;28;20234;-81
2021/12/06 04:38:16;;;;;;;38.88;34.97;;;;;;;;;;5033784;28;20202;-81
2021/12/06 04:40:44;;;;;;;39.35;35.28;;;;;;;;;;5035763;28;20312;-81
2021/12/06 04:43:12;;;;;;;40.75;36.50;;;;;;;;;;5035841;28;20219;-81
2021/12/06 04:45:39;;;;;;;45.03;37.20;;;;;;;;;;5034117;28;20229;-80
2021/12/06 04:48:07;;;;;;;40.05;35.78;;;;;;;;;;5017729;28;20256;-81
2021/12/06 04:50:35;;;;;;;43.00;35.25;;;;;;;;;;5034046;28;20230;-81
2021/12/06 04:53:06;;;;;;;40.95;36.55;;;;;;;;;;5035352;28;20201;-80
2021/12/06 04:55:36;;;;;;;44.65;36.17;;;;;;;;;;5034460;28;20195;-80
2021/12/06 04:58:05;;;;;;;50.00;37.72;;;;;;;;;;5035468;28;20204;-79
2021/12/06 05:00:34;;;;;;;46.28;38.33;;;;;;;;;;5036782;28;20198;-80
2021/12/06 05:03:02;;;;;;;46.17;36.13;;;;;;;;;;5037542;28;20292;-80
2021/12/06 05:05:38;;;;;;;41.10;35.70;;;;;;;;;;5038262;28;20197;-81
2021/12/06 05:08:08;;;;;;;40.33;36.00;;;;;;;;;;5035684;28;20206;-79
2021/12/06 05:10:36;;;;;;;47.65;37.00;;;;;;;;;;5035580;28;20216;-81
2021/12/06 05:13:04;;;;;;;48.67;36.50;;;;;;;;;;5039316;28;20256;-81
2021/12/06 05:15:41;;;;;;;55.92;37.55;;;;;;;;;;5035994;28;20194;-80
2021/12/06 05:18:09;;;;;;;42.80;37.35;;;;;;;;;;5034723;28;20235;-81
2021/12/06 05:20:39;;;;;;;43.85;37.55;;;;;;;;;;5036639;28;20191;-81
2021/12/06 05:23:09;;;;;;;42.00;36.30;;;;;;;;;;5042475;28;20230;-80
2021/12/06 05:25:39;;;;;;;52.10;38.58;;;;;;;;;;5038083;28;20183;-81
2021/12/06 05:28:06;;;;;;;45.83;38.35;;;;;;;;;;5036238;28;20226;-81
2021/12/06 05:30:36;;;;;;;55.30;39.38;;;;;;;;;;5036592;28;20198;-81
2021/12/06 05:33:04;;;;;;;59.67;40.60;;;;;;;;;;5036311;28;20198;-81
2021/12/06 05:35:31;;;;;;;44.80;36.10;;;;;;;;;;5019628;28;20226;-81
2021/12/06 05:37:59;;;;;;;51.78;37.65;;;;;;;;;;5016306;28;20190;-81
2021/12/06 05:40:29;;;;;;;47.88;36.78;;;;;;;;;;5015924;28;20188;-81
2021/12/06 05:42:58;;;;;;;45.97;37.28;;;;;;;;;;5016171;28;20220;-81
2021/12/06 05:45:26;;;;;;;49.05;39.30;;;;;;;;;;4997487;28;20199;-81
2021/12/06 05:47:54;;;;;;;48.55;37.28;;;;;;;;;;5019560;28;20228;-81
2021/12/06 05:50:22;;;;;;;45.77;38.57;;;;;;;;;;5015547;28;20192;-81
2021/12/06 05:52:52;;;;;;;50.55;39.75;;;;;;;;;;5013907;28;20439;-81
2021/12/06 05:55:20;;;;;;;44.90;38.60;;;;;;;;;;5015001;28;20218;-80
2021/12/06 05:57:49;;;;;;;49.55;39.22;;;;;;;;;;5013120;28;20218;-81
2021/12/06 06:00:20;;;;;;;47.40;38.78;;;;;;;;;;5015209;28;20194;-81
2021/12/06 06:02:47;;;;;;;47.25;39.42;;;;;;;;;;5014662;28;20227;-81
2021/12/06 06:05:15;;;;;;;49.17;38.15;;;;;;;;;;5013910;28;20204;-80
2021/12/06 06:07:43;;;;;;;47.97;37.53;;;;;;;;;;5017279;28;20193;-81
2021/12/06 06:10:10;;;;;;;48.53;38.28;;;;;;;;;;5016600;28;20589;-80
2021/12/06 06:12:40;;;;;;;43.05;37.78;;;;;;;;;;5017091;28;20262;-81
2021/12/06 06:15:09;;;;;;;42.08;36.85;;;;;;;;;;5016719;28;20211;-81
2021/12/06 06:17:42;;;;;;;42.20;37.65;;;;;;;;;;5015492;28;20199;-82
2021/12/06 06:20:11;;;;;;;44.28;39.05;;;;;;;;;;5013550;28;20712;-81
2021/12/06 06:22:38;;;;;;;45.10;39.00;;;;;;;;;;5015097;28;20235;-79
2021/12/06 06:25:06;;;;;;;43.33;38.28;;;;;;;;;;5013126;28;20450;-81
2021/12/06 06:27:33;;;;;;;48.05;37.42;;;;;;;;;;5017366;28;20198;-81
2021/12/06 06:30:01;;;;;;;43.30;38.60;;;;;;;;;;5016828;28;20208;-79
2021/12/06 06:32:31;;;;;;;43.90;36.72;;;;;;;;;;5016075;28;20196;-81
2021/12/06 06:34:58;;;;;;;47.25;37.03;;;;;;;;;;5028630;28;21021;-81
2021/12/06 06:37:29;;;;;;;45.80;37.45;;;;;;;;;;5035218;28;20203;-81
2021/12/06 06:39:56;;;;;;;44.35;37.47;;;;;;;;;;5045270;28;20213;-81
2021/12/06 06:42:27;;;;;;;44.90;37.03;;;;;;;;;;5038716;28;20236;-81
2021/12/06 06:44:59;;;;;;;47.08;37.33;;;;;;;;;;5036771;28;20213;-80
2021/12/06 06:47:26;;;;;;;51.42;40.47;;;;;;;;;;5037093;28;20195;-81
2021/12/06 06:49:55;;;;;;;46.63;38.83;;;;;;;;;;5032684;28;20538;-80
2021/12/06 06:52:23;;;;;;;42.20;37.17;;;;;;;;;;5035241;28;20210;-81
2021/12/06 06:54:50;;;;;;;45.70;37.63;;;;;;;;;;5034695;28;20206;-81
2021/12/06 06:57:17;;;;;;;42.25;37.65;;;;;;;;;;5037575;28;20191;-81
2021/12/06 06:59:46;;;;;;;51.70;39.13;;;;;;;;;;5037509;28;20203;-80
2021/12/06 07:02:14;;;;;;;41.58;37.17;;;;;;;;;;5035862;28;20259;-81
2021/12/06 07:04:41;;;;;;;43.03;38.42;;;;;;;;;;5036643;28;20192;-81
2021/12/06 07:07:10;;;;;;;41.75;36.55;;;;;;;;;;5035728;28;20201;-81
2021/12/06 07:09:37;;;;;;;45.60;40.53;;;;;;;;;;5036114;28;20245;-81
2021/12/06 07:12:06;;;;;;;40.97;36.58;;;;;;;;;;5036147;28;20202;-81
2021/12/06 07:14:33;;;;;;;45.22;39.97;;;;;;;;;;5036025;28;20275;-82
2021/12/06 07:17:00;;;;;;;44.03;36.88;;;;;;;;;;5035708;28;20194;-82
2021/12/06 07:19:28;;;;;;;43.33;38.75;;;;;;;;;;5018474;28;20260;-81
2021/12/06 07:21:55;;;;;;;45.10;37.95;;;;;;;;;;5036120;28;20210;-81
2021/12/06 07:24:25;;;;;;;45.22;38.83;;;;;;;;;;5035721;28;20202;-82
2021/12/06 07:26:52;;;;;;;43.95;37.88;;;;;;;;;;5035949;28;20234;-81
2021/12/06 07:29:19;;;;;;;45.35;38.72;;;;;;;;;;5035664;28;20634;-81
2021/12/06 07:31:47;;;;;;;48.67;39.10;;;;;;;;;;5035191;28;20201;-81
2021/12/06 07:34:14;;;;;;;44.78;39.88;;;;;;;;;;5030263;28;20231;-80
2021/12/06 07:36:41;;;;;;;42.85;38.17;;;;;;;;;;5015560;28;20192;-82
2021/12/06 07:39:10;;;;;;;41.83;37.47;;;;;;;;;;5016396;28;20199;-81
2021/12/06 07:41:39;;;;;;;43.67;38.92;;;;;;;;;;5015403;28;20223;-82
2021/12/06 07:44:06;;;;;;;41.08;36.67;;;;;;;;;;5016618;28;20232;-81
2021/12/06 07:46:34;;;;;;;47.83;38.63;;;;;;;;;;5015906;28;20560;-81
2021/12/06 07:49:01;;;;;;;48.00;38.42;;;;;;;;;;5015442;28;20199;-81
2021/12/06 07:51:29;;;;;;;44.70;39.90;;;;;;;;;;5016346;28;20195;-81
2021/12/06 07:53:56;;;;;;;42.03;37.25;;;;;;;;;;5016901;28;20650;-81
2021/12/06 07:56:24;;;;;;;42.42;37.83;;;;;;;;;;5015829;28;20199;-81
2021/12/06 07:58:54;;;;;;;40.83;36.53;;;;;;;;;;5022153;28;20772;-81
2021/12/06 08:01:21;;;;;;;46.55;39.10;;;;;;;;;;5036541;28;20203;-82
2021/12/06 08:03:49;;;;;;;41.35;36.88;;;;;;;;;;5019361;28;20261;-82
2021/12/06 08:06:16;;;;;;;44.33;38.20;;;;;;;;;;5036322;28;20193;-82
2021/12/06 08:08:46;;;;;;;49.00;41.67;;;;;;;;;;5020067;28;20192;-82
2021/12/06 08:11:15;;;;;;;46.63;41.58;;;;;;;;;;5014897;28;20287;-81
2021/12/06 08:13:44;;;;;;;41.65;37.28;;;;;;;;;;5014150;28;20228;-82
2021/12/06 08:16:14;;;;;;;39.00;34.75;;;;;;;;;;5014315;28;20202;-81
2021/12/06 08:18:41;;;;;;;39.75;35.55;;;;;;;;;;5014178;28;20191;-82
2021/12/06 08:21:09;;;;;;;42.03;36.38;;;;;;;;;;5014101;28;20196;-82
2021/12/06 08:23:37;;;;;;;40.15;36.22;;;;;;;;;;5014353;28;20222;-82
2021/12/06 08:26:05;;;;;;;39.95;35.88;;;;;;;;;;4996323;28;20543;-82
2021/12/06 08:28:34;;;;;;;40.35;36.30;;;;;;;;;;5014306;28;20253;-82
2021/12/06 08:31:02;;;;;;;46.90;37.50;;;;;;;;;;5014298;28;20281;-82
2021/12/06 08:33:31;;;;;;;45.13;36.65;;;;;;;;;;5013791;28;20198;-85
2021/12/06 08:35:59;;;;;;;40.72;36.20;;;;;;;;;;5033278;28;20198;-81
2021/12/06 08:38:27;;;;;;;39.15;35.03;;;;;;;;;;5033785;28;20209;-81
2021/12/06 08:40:55;;;;;;;42.65;37.92;;;;;;;;;;5033130;28;20226;-81
2021/12/06 08:43:23;;;;;;;43.95;38.10;;;;;;;;;;5033536;28;20227;-81
2021/12/06 08:45:52;;;;;;;39.53;35.40;;;;;;;;;;5033389;28;20221;-82
2021/12/06 08:48:20;;;;;;;39.85;34.95;;;;;;;;;;5033422;28;20202;-82
2021/12/06 08:50:48;;;;;;;45.47;37.90;;;;;;;;;;5032318;28;20585;-82
2021/12/06 08:53:16;;;;;;;39.10;35.10;;;;;;;;;;5033127;28;20655;-81
2021/12/06 08:55:43;;;;;;;40.45;35.15;;;;;;;;;;5033094;28;20198;-81
2021/12/06 08:58:10;;;;;;;40.35;36.08;;;;;;;;;;5033187;28;20190;-81
2021/12/06 09:00:38;;;;;;;40.33;36.15;;;;;;;;;;5033117;28;20188;-80
2021/12/06 09:03:06;;;;;;;38.22;34.55;;;;;;;;;;5033110;28;20222;-82
2021/12/06 09:05:35;;;;;;;37.97;34.15;;;;;;;;;;5033482;28;20544;-83
2021/12/06 09:08:05;;;;;;;36.20;32.60;;;;;;;;;;5033231;28;20221;-82
2021/12/06 09:10:32;;;;;;;39.38;35.47;;;;;;;;;;5033067;28;20631;-83
2021/12/06 09:13:00;;;;;;;35.38;32.03;;;;;;;;;;5032987;28;20202;-82
2021/12/06 09:15:27;;;;;;;37.13;33.30;;;;;;;;;;5014745;28;20207;-82
2021/12/06 09:17:55;;;;;;;37.15;33.25;;;;;;;;;;5032852;28;20200;-82
2021/12/06 09:20:24;;;;;;;37.28;33.35;;;;;;;;;;5033055;28;20225;-82
2021/12/06 09:22:51;;;;;;;40.05;35.72;;;;;;;;;;5032539;28;20194;-82
2021/12/06 09:25:21;;;;;;;39.47;35.60;;;;;;;;;;5032777;28;20199;-81
2021/12/06 09:27:49;;;;;;;40.55;34.70;;;;;;;;;;5032924;28;20195;-80
2021/12/06 09:30:19;;;;;;;36.20;32.75;;;;;;;;;;5032612;28;20628;-82
2021/12/06 09:32:47;;;;;;;36.78;33.28;;;;;;;;;;5032591;28;20548;-81
2021/12/06 09:35:20;;;;;;;36.10;32.63;;;;;;;;;;5019527;28;20262;-81
2021/12/06 09:37:47;;;;;;;39.17;35.05;;;;;;;;;;5013309;28;20214;-82
2021/12/06 09:40:16;;;;;;;37.20;32.78;;;;;;;;;;5012598;28;20227;-81
2021/12/06 09:42:44;;;;;;;38.95;35.00;;;;;;;;;;5012857;28;20228;-81
2021/12/06 09:45:13;;;;;;;38.00;34.08;;;;;;;;;;5013882;28;20629;-81
2021/12/06 09:47:40;;;;;;;38.78;34.95;;;;;;;;;;5032566;28;20202;-82
2021/12/06 09:50:08;;;;;;;38.60;34.33;;;;;;;;;;5032255;28;20195;-82
2021/12/06 09:52:36;;;;;;;36.85;33.00;;;;;;;;;;5032368;28;20641;-82
2021/12/06 09:55:03;;;;;;;36.88;33.17;;;;;;;;;;5032211;28;20202;-82
2021/12/06 09:57:31;;;;;;;37.40;33.55;;;;;;;;;;5032193;28;20201;-82
2021/12/06 10:00:00;;;;;;;38.50;34.55;;;;;;;;;;5032346;28;20199;-82
2021/12/06 10:02:28;;;;;;;39.22;35.22;;;;;;;;;;5031981;28;20205;-82
2021/12/06 10:04:55;;;;;;;44.30;38.97;;;;;;;;;;5032395;28;20565;-81
2021/12/06 10:07:24;;;;;;;37.40;33.58;;;;;;;;;;5032206;28;20206;-81
2021/12/06 10:09:52;;;;;;;38.40;34.35;;;;;;;;;;5031971;28;20204;-81
2021/12/06 10:12:20;;;;;;;37.25;33.65;;;;;;;;;;5032063;28;20207;-81
2021/12/06 10:14:47;;;;;;;39.63;35.67;;;;;;;;;;5031776;28;20673;-82
2021/12/06 10:17:17;;;;;;;38.05;34.30;;;;;;;;;;5031774;28;20194;-81
2021/12/06 10:19:45;;;;;;;36.55;32.90;;;;;;;;;;5032134;28;20193;-81
2021/12/06 10:22:13;;;;;;;37.78;33.80;;;;;;;;;;5031629;28;20242;-82
2021/12/06 10:24:41;;;;;;;38.42;34.47;;;;;;;;;;5031747;28;20242;-81
2021/12/06 10:27:10;;;;;;;38.38;34.47;;;;;;;;;;5031887;28;20699;-84
2021/12/06 10:29:39;;;;;;;38.10;34.10;;;;;;;;;;5031618;28;20673;-82
2021/12/06 10:32:12;;;;;;;36.88;33.22;;;;;;;;;;5031374;28;20203;-81
2021/12/06 10:34:43;;;;;;;33.72;30.33;;;;;;;;;;5031774;28;20254;-81
2021/12/06 10:37:27;;;;;;;37.80;34.25;;;;;;;;;;5031945;28;20620;-83
2021/12/06 10:39:54;;;;;;;35.63;32.17;;;;;;;;;;5032063;28;20226;-80
2021/12/06 10:42:26;;;;;;;39.58;35.47;;;;;;;;;;5031780;28;20690;-81
2021/12/06 10:44:53;;;;;;;37.65;33.85;;;;;;;;;;5031551;28;20581;-82
2021/12/06 10:47:21;;;;;;;40.55;36.35;;;;;;;;;;5032053;28;20206;-81
2021/12/06 10:49:50;;;;;;;39.65;35.78;;;;;;;;;;5031535;28;20237;-82
2021/12/06 10:52:25;;;;;;;38.83;35.35;;;;;;;;;;5032033;28;20203;-82
2021/12/06 10:54:53;;;;;;;36.45;33.05;;;;;;;;;;5031913;28;20230;-82
2021/12/06 10:57:21;;;;;;;37.60;33.60;;;;;;;;;;5031623;28;20676;-83
2021/12/06 10:59:48;;;;;;;36.10;32.33;;;;;;;;;;5031742;28;20194;-81
2021/12/06 11:02:15;;;;;;;36.03;32.63;;;;;;;;;;5031886;28;20190;-82
2021/12/06 11:04:44;;;;;;;39.78;35.90;;;;;;;;;;5031610;28;20249;-82
2021/12/06 11:07:13;;;;;;;36.45;33.13;;;;;;;;;;5031854;28;20204;-82
2021/12/06 11:09:42;;;;;;;38.22;34.85;;;;;;;;;;5031360;28;20198;-82
2021/12/06 11:12:10;;;;;;;35.55;32.20;;;;;;;;;;5031706;28;20202;-81
2021/12/06 11:14:40;;;;;;;36.58;33.25;;;;;;;;;;5031311;28;20200;-82
2021/12/06 11:17:08;;;;;;;36.22;32.92;;;;;;;;;;5031694;28;20191;-82
2021/12/06 11:19:36;;;;;;;36.47;33.17;;;;;;;;;;4997539;28;20206;-82
2021/12/06 11:22:05;;;;;;;36.55;33.25;;;;;;;;;;5031595;28;20622;-81
2021/12/06 11:24:38;;;;;;;37.47;33.83;;;;;;;;;;5031648;28;20623;-82
2021/12/06 11:27:08;;;;;;;35.85;32.65;;;;;;;;;;5031152;28;20645;-82
2021/12/06 11:29:37;;;;;;;35.53;32.20;;;;;;;;;;5031615;28;20199;-82
2021/12/06 11:32:07;;;;;;;35.60;32.40;;;;;;;;;;5031513;28;20195;-82
2021/12/06 11:34:37;;;;;;;34.47;31.20;;;;;;;;;;5025360;28;20239;-82
2021/12/06 11:37:12;;;;;;;32.70;29.55;;;;;;;;;;5011675;28;20195;-81
2021/12/06 11:39:40;;;;;;;32.92;29.80;;;;;;;;;;5011775;28;20232;-82
2021/12/06 11:42:08;;;;;;;35.03;31.63;;;;;;;;;;5011811;28;20199;-82
2021/12/06 11:44:38;;;;;;;33.10;30.05;;;;;;;;;;5013743;28;20215;-82
2021/12/06 11:47:09;;;;;;;33.88;30.60;;;;;;;;;;5014781;28;20593;-82
2021/12/06 11:49:38;;;;;;;32.72;29.52;;;;;;;;;;5015118;28;20199;-82
2021/12/06 11:52:07;;;;;;;32.38;29.55;;;;;;;;;;5014978;28;20215;-82
2021/12/06 11:54:40;;;;;;;31.05;28.20;;;;;;;;;;5015073;28;20195;-82
2021/12/06 11:57:13;;;;;;;33.92;30.80;;;;;;;;;;5014679;28;21012;-82
2021/12/06 11:59:47;;;;;;;34.47;30.90;;;;;;;;;;5014881;28;20274;-82
2021/12/06 12:02:15;;;;;;;32.65;29.83;;;;;;;;;;5014535;28;20198;-82
2021/12/06 12:04:42;;;;;;;32.28;29.42;;;;;;;;;;5014433;28;20235;-81
2021/12/06 12:07:10;;;;;;;31.70;28.73;;;;;;;;;;5014745;28;20533;-82
2021/12/06 12:09:38;;;;;;;32.83;30.05;;;;;;;;;;5014585;28;20192;-82
2021/12/06 12:12:07;;;;;;;31.27;28.67;;;;;;;;;;5014236;28;20188;-82
2021/12/06 12:14:39;;;;;;;32.72;29.33;;;;;;;;;;5014662;28;20195;-82
2021/12/06 12:17:07;;;;;;;36.05;32.70;;;;;;;;;;5014395;28;20195;-82
2021/12/06 12:19:35;;;;;;;31.77;28.83;;;;;;;;;;5014323;28;20192;-81
2021/12/06 12:22:02;;;;;;;32.05;28.77;;;;;;;;;;5013931;28;20290;-82
2021/12/06 12:24:31;;;;;;;30.10;27.30;;;;;;;;;;5014363;28;20219;-82
2021/12/06 12:27:05;;;;;;;31.40;28.42;;;;;;;;;;5014819;28;20194;-82
2021/12/06 12:29:33;;;;;;;33.45;30.15;;;;;;;;;;5014074;28;20291;-82
2021/12/06 12:32:03;;;;;;;33.75;30.35;;;;;;;;;;5014001;28;20197;-82
2021/12/06 12:34:31;;;;;;;31.23;28.20;;;;;;;;;;5019052;28;20284;-81
2021/12/06 12:36:58;;;;;;;30.10;27.60;;;;;;;;;;5033750;28;20679;-82
2021/12/06 12:39:26;;;;;;;30.75;28.13;;;;;;;;;;5033643;28;20687;-83
2021/12/06 12:41:55;;;;;;;28.65;26.35;;;;;;;;;;5033839;28;20694;-82
2021/12/06 12:44:22;;;;;;;35.72;32.30;;;;;;;;;;5033577;28;20219;-82
2021/12/06 12:46:52;;;;;;;31.23;28.33;;;;;;;;;;5033663;28;20655;-82
2021/12/06 12:49:22;;;;;;;30.20;27.55;;;;;;;;;;5033441;28;20233;-82
2021/12/06 12:51:52;;;;;;;30.77;28.05;;;;;;;;;;5033578;28;20586;-82
2021/12/06 12:54:22;;;;;;;33.00;29.85;;;;;;;;;;5032909;28;20283;-82
2021/12/06 12:56:51;;;;;;;31.02;28.42;;;;;;;;;;5033250;28;20207;-81
2021/12/06 12:59:19;;;;;;;30.50;27.83;;;;;;;;;;5033294;28;20723;-81
2021/12/06 13:02:07;;;;;;;29.63;26.83;;;;;;;;;;5033182;28;20199;-81
2021/12/06 13:07:29;;;;;;;30.15;27.30;;;;;;;;;;5109982;27;20565;-81
2021/12/06 13:09:58;;;;;;;29.13;26.52;;;;;;;;;;5109785;28;20199;-81
2021/12/06 13:12:25;;;;;;;28.60;26.25;;;;;;;;;;5109713;28;20227;-81
2021/12/06 13:14:57;;;;;;;29.80;27.33;;;;;;;;;;5109941;28;20186;-83
2021/12/06 13:17:30;;;;;;;29.60;26.98;;;;;;;;;;5108595;28;20294;-82
2021/12/06 13:20:09;;;;;;;27.45;25.27;;;;;;;;;;5110305;28;20237;-83
2021/12/06 13:22:46;;;;;;;30.10;27.67;;;;;;;;;;5110081;28;20192;-83
2021/12/06 13:25:14;;;;;;;27.98;25.73;;;;;;;;;;5109878;27;20199;-83
2021/12/06 13:27:44;;;;;;;28.52;26.13;;;;;;;;;;5109877;28;20675;-83
2021/12/06 13:30:17;;;;;;;28.13;25.90;;;;;;;;;;5109730;28;20188;-82
2021/12/06 13:32:49;;;;;;;26.95;24.85;;;;;;;;;;5109782;28;20233;-82
2021/12/06 13:35:38;;;;;;;27.13;25.13;;;;;;;;;;5118839;28;20245;-85
2021/12/06 13:38:24;;;;;;;27.02;24.95;;;;;;;;;;5130895;27;20440;-84
2021/12/06 13:41:13;;;;;;;28.90;26.55;;;;;;;;;;5130253;27;20255;-84
2021/12/06 13:43:44;;;;;;;29.73;27.05;;;;;;;;;;5129874;27;20264;-83
2021/12/06 13:46:12;;;;;;;27.25;25.25;;;;;;;;;;5130208;27;20225;-83
2021/12/06 13:48:40;;;;;;;28.17;25.67;;;;;;;;;;5129914;27;20615;-82
2021/12/06 13:51:22;;;;;;;27.65;25.48;;;;;;;;;;5129690;27;20189;-83
2021/12/06 13:53:53;;;;;;;26.88;24.80;;;;;;;;;;5129595;27;20211;-85
2021/12/06 13:56:37;;;;;;;27.35;25.35;;;;;;;;;;5129749;27;20200;-82
2021/12/06 13:59:04;;;;;;;27.52;25.52;;;;;;;;;;5129872;27;20246;-83
2021/12/06 14:01:33;;;;;;;29.27;26.90;;;;;;;;;;5129784;27;20539;-83
2021/12/06 14:04:02;;;;;;;26.95;24.83;;;;;;;;;;5129590;27;20583;-83
2021/12/06 14:06:41;;;;;;;27.27;25.17;;;;;;;;;;5129380;27;20640;-83
2021/12/06 14:09:09;;;;;;;28.38;25.85;;;;;;;;;;5129475;27;20195;-82
2021/12/06 14:11:37;;;;;;;27.88;25.73;;;;;;;;;;5129626;27;20196;-83
2021/12/06 14:14:10;;;;;;;29.30;27.10;;;;;;;;;;5129299;27;20191;-83
2021/12/06 14:16:37;;;;;;;29.58;27.23;;;;;;;;;;5128778;27;20326;-84
2021/12/06 14:19:04;;;;;;;27.65;25.52;;;;;;;;;;5115457;27;20208;-83
2021/12/06 14:21:35;;;;;;;28.55;26.25;;;;;;;;;;5115720;28;20283;-82
2021/12/06 14:24:03;;;;;;;28.55;26.35;;;;;;;;;;5115721;28;20193;-83
2021/12/06 14:26:33;;;;;;;29.80;27.17;;;;;;;;;;5114166;28;20620;-83
2021/12/06 14:29:02;;;;;;;28.38;25.95;;;;;;;;;;5115421;28;20197;-82
2021/12/06 14:31:30;;;;;;;26.80;24.80;;;;;;;;;;5115560;28;20544;-83
2021/12/06 14:34:03;;;;;;;29.08;26.60;;;;;;;;;;5115560;27;20196;-83
2021/12/06 14:36:31;;;;;;;30.00;27.35;;;;;;;;;;5096242;28;20615;-82